Timeline UpdatesTrip UpdatesNews PostsPvt Posts♥♥Travel TipsAdmin PostsConv PostsFollowed PostsChat RequestsBlog PostsPNR Posts

Disclaimer
Search
 
 
Thu Oct 30, 2014 17:46:53 ISTHomeTrainsΣChainsAtlasPNRForumGalleryNewsFAQTripsMembersLoginFeedback
No Recent News for this Train
Other Trains in the News **new
Latest...
⇐ Return Journey: Train# 14235

14236/Bareilly - Varanasi Express

Time-Table HAS CHANGED.
Oct 27 (10:48AM)
Change Departure Station:
Change Arrival Station:
Post a Train Travel TipPost a Train Travel Tip **new
Post a Comment/Question/Picture/VideoPost a Comment/Question/Picture/Video
Pantry/Catering
✕ NO Pantry Car
✕ NO Catering
RSA - Rake Sharing
Rake/Coach Composition
LOCO-SLR-GS1-GS2-B1-S5-S4-S3-S2-S1-GS3-GS4-SLR. Blog# 943920.
Loco
News    PNR    Forum    Time-Table    Availability    Fare Chart    Map    Arr/Dep History    Trips    Gallery    ΣChains    X/O    Timeline    
Travel Time: 14h 30m    38 halts    Distance: 523 km    Avg Speed: 36 km/hr
Type: Mail/Express
Zone: NR/Northern
Departs @ 16:20 (Avg 40m late)
Platform# ???
SMTWTFS
Bilpur/BLPU 
Arrives @ 06:50 +1 night (Avg 27m late)
Platform# 8
SMTWTFS
Varanasi Junction/BSB 

38 halts. 78 intermediate Stations between Bilpur and Varanasi Junction

Show ALL intermediate Stations  Show Old Time-Table

#TrkCodeStation NameX/OArrivesAvgDepartsAvgHaltPFDay#KmSpeedElevZoneAddress
1/==/BEBareilly Junction (4)  -15:35+1331-35.457174mNRBareilly, Uttar Pradesh
2/==/RYSRasuriya  15:46+2815:48+332m--1-25.063174mNRNH 24, Uttar Pradesh
3/==/PMRPitambarpur (3)  15:57+3515:59+352m--1-15.657171mNRPitambarpur, Uttar Pradesh
4/==/TSATisua  16:08+3716:10+392m--1-7.053165mNRNational Highway 24, Uttar Pradesh
5/==/BLPUBilpur»  16:18+3616:20+402m--10.054161mNRFatehganj, Uttar Pradesh
6/==/MKMiranpur Katra  16:28+4016:30+402m--17.258162mNRShahjahanpur, Uttar Pradesh
7/==/TLHTilhar  16:42 16:40+4116:44 16:42+432m--116.965163mNRTilhar, Uttar Pradesh
8/==/BTRABanthraX  16:53 16:51+4616:55 16:53+462m--126.734154mNRNH 24, Uttar Pradesh
9/==/SPNShahjahanpur Junction (3)X  17:07 17:08+3817:12 17:13+415m1135.055156mNRShahjahanpur, Uttar Pradesh
10/=-|ROZARoza Junction (4)X  17:20 17:21+5117:22 17:23+512m--142.451156mNRShahjahanpur, Uttar Pradesh
11/==/KHKahiliyaX  17:33+5317:35+552m--150.964152mNRSH 25, Uttar Pradesh
12/==/AIGAlgawan  17:43+5617:45+1:032m--159.554152mNRAlgawan, Uttar Pradesh
13/==/AJIAnjhi ShahabadXO  17:52+1:0417:54+1:092m--165.864148mNRAnjhi Shahabad, Uttar Pradesh
14/==/TDPTodarpurXO  18:02+1:1018:04+1:112m--174.265147mNRSH 25, Uttar Pradesh
15/==/BEGBehtagokul  18:11 18:10+1:1218:13 18:12+1:192m--180.759152mNRBehtagokul, Uttar Pradesh
16/==/KUFKaurha  18:22 18:21+1:2018:24 18:23+1:242m--189.656148mNRSH 25, Uttar Pradesh
17/==/HRIHardoi (5)X  18:33 18:32+1:1118:35 18:34+1:162m3197.945146mNRHardoi, Uttar Pradesh
18/==/KARKarnaX  18:48 18:47+1:3318:50 18:49+1:422m--1107.856143mNRHardoi, Uttar Pradesh
19/==/MSTMasit  18:58 18:57+1:4319:00 18:59+1:432m--1115.352141mNRSH 25, Uttar Pradesh
20/==/BGHBaghauliX  19:08 19:07+1:3919:10 19:09+1:542m--1122.252141mNRsharda nehar, Uttar Pradesh
21/==/BLMBalamau Junction (4)X  19:21 19:19+1:5819:23 19:21+1:582m--1131.052139mNRBalamau, Uttar Pradesh
22/==/DLQDalelnagarX  19:33 19:31+1:5719:35 19:33+1:572m--1139.648136mNRSH 25, Uttar Pradesh
23/==/UTAUmar TaliX  19:42 19:41+1:5719:44 19:43+2:042m--1146.040135mNRHardoi, Uttar Pradesh
24/==/SANSandila (3)  19:51+2:0419:53+2:082m--1151.360132mNRSandila, Uttar Pradesh
25/==/RBDRahimabadX  20:03 20:04+2:0920:05 20:06+2:122m--1162.351132mNRSH 25, Uttar Pradesh
26/==/DILDilawarnagarX  20:13 20:15+2:1120:15 20:17+2:192m--1169.943133mNRSH 25, Uttar Pradesh
27/==/MLDMalihabadX  20:20 20:25+2:1620:24 20:27+2:284 2m--1175.658130mNRMalihabad, Uttar Pradesh
28/==/KKJKakori (3)XO  20:33 20:37+2:0820:35 20:39+2:102m--1185.26129mNRSH 25, Uttar Pradesh
29/==/LKOLucknow Charbagh NR (9)X  23:00 23:15+4523:15 23:25+4915 10m51199.845 NR226004, Uttar Pradesh
30/==/BBKBarabanki Junction (4)X  23:55 00:03+1:0523:57 00:05+1:002m32228.360 NRPin-225001, Uttar Pradesh
31|--|DYDDaryabadX  00:28 00:43+1:2200:30 00:45+1:222m--2266.458116mNRFaizabad Rd, Uttar Pradesh
32|--|RDLRudauli (2)  00:48 01:09+1:2200:50 01:11+1:232m--2289.562112mNRRudauli, Uttar Pradesh
33|--|FDFaizabad Junction (5)  01:48+1:0301:53+1:075m12327.627104mNRFaizabad, Uttar Pradesh
34|--|AYAyodhya Junction (3)X  02:08+1:2002:10+1:222m12334.34098mNRAyodhya, Uttar Pradesh
35|--|GGJGoshainGanj (3)  02:58+1:0503:00+1:082m--2366.06798mNRGoshainganj, Uttar Pradesh
36|--|ABPAkbarpur Junction (2)  03:20+1:1303:22+1:152m--2388.27692mNRAkbarpur, Uttar Pradesh
37|--|MLPRMalipur (2)X  03:37+1:1903:39+1:202m--2407.34792mNRMalipur, Uttar Pradesh
38|--|SHGShahganj Junction (4)  04:11+1:1804:15+1:204m--2432.35390mNRShahganj, Uttar Pradesh
39|--|KSKheta Sarai (1)  04:27+1:2304:29+1:232m--2443.07288mNRKheta Sarai, Uttar Pradesh
40|--|JNUJaunpur Junction (5)X  04:48+1:2304:50+1:242m--2465.63283mNRJaunpur, Uttar Pradesh
41|--|ZBDZafarabad Junction (4)X  05:02+1:2405:04+1:252m--2472.13683mNRNational Highway 56, Uttar Pradesh
42/==/KSFKhalispur (2)X  05:43+1:0805:44+1:091m--2495.47083mNRPhulpur, Uttar Pradesh
43/==/BTPBabatpur (2)  05:52+1:0705:54+1:072m--2504.82084mNRSatomahua-Mangari Rd, Uttar Pradesh
44/==/BSBVaranasi Junction (9)•  06:50+27-82523.3-82mNRVaranasi 221002, Uttar Pradesh
Scroll to Top
Scroll to Bottom